Time;durP1;ratioP1;P1;durP2;ratioP2;P2;SDS_P1;SDS_P2;PMS_P1;PMS_P2;Temp;Humidity;BMP_temperature;BMP_pressure;BME280_temperature;BME280_humidity;BME280_pressure;Samples;Min_cycle;Max_cycle;Signal;HPM_P1;HPM_P2
2023/03/07 00:00:26;;;;;;;;;1.75;1.00;;;;;13.68;51.15;100657.59;146651;666;45010;-80
2023/03/07 00:03:40;;;;;;;;;;;;;;;;;;;;;
2023/03/07 00:06:55;;;;;;;;;3.25;3.25;;;;;13.79;51.39;100657.16;146650;619;44021;-79
2023/03/07 00:09:51;;;;;;;;;0.00;0.00;;;;;13.80;48.11;100651.13;146647;570;46016;-78
2023/03/07 00:13:08;;;;;;;;;5.50;4.75;;;;;12.03;51.12;100319.97;146650;616;45010;-79
2023/03/07 00:16:28;;;;;;;;;9.00;6.00;;;;;13.93;49.91;100639.44;146648;617;44913;-79
2023/03/07 00:20:00;;;;;;;;;3.00;2.00;;;;;12.13;51.56;100306.47;146650;624;44020;-77
2023/03/07 00:23:06;;;;;;;;;;;;;;;;;;;;;
2023/03/07 00:26:32;;;;;;;;;8.00;6.00;;;;;14.03;51.46;100617.19;146652;574;44020;-79
2023/03/07 00:29:36;;;;;;;;;6.00;5.25;;;;;14.04;50.22;100608.50;146650;599;44913;-80
2023/03/07 00:32:35;;;;;;;;;3.25;3.25;;;;;14.02;50.17;100613.69;146652;563;44020;-79
2023/03/07 00:35:39;;;;;;;;;3.00;3.00;;;;;14.03;50.62;100611.97;146635;627;45016;-77
2023/03/07 00:38:49;;;;;;;;;7.25;7.00;;;;;14.05;50.07;100605.09;146638;579;45012;-76
2023/03/07 00:41:47;;;;;;;;;4.00;4.00;;;;;14.09;50.34;100606.97;146637;565;45014;-77
2023/03/07 00:45:01;;;;;;;;;4.00;3.00;;;;;12.21;51.42;100283.34;146637;641;45021;-77
2023/03/07 00:47:58;;;;;;;;;4.75;3.50;;;;;14.07;50.61;100600.81;146636;628;45014;-77
2023/03/07 00:51:01;;;;;;;;;4.75;2.50;;;;;14.05;51.67;100589.47;146639;564;45022;-78
2023/03/07 00:54:08;;;;;;;;;3.50;3.00;;;;;12.07;52.76;100243.87;146635;571;45016;-80
2023/03/07 00:57:02;;;;;;;;;1.25;1.25;;;;;14.02;51.92;100578.91;146639;654;45012;-79
2023/03/07 01:00:08;;;;;;;;;4.00;3.00;;;;;12.11;52.72;100255.25;146635;635;45016;-78
2023/03/07 01:03:16;;;;;;;;;9.50;7.25;;;;;14.03;52.31;100586.78;146635;585;45916;-78
2023/03/07 01:06:28;;;;;;;;;9.00;5.75;;;;;12.12;53.14;100239.75;146633;569;45912;-77
2023/03/07 01:09:53;;;;;;;;;;;;;;;;;;;;;
2023/03/07 01:12:49;;;;;;;;;4.00;3.00;;;;;14.03;53.77;100568.53;146634;668;45016;-78
2023/03/07 01:15:53;;;;;;;;;8.25;5.50;;;;;13.95;53.86;100561.25;146638;587;45012;-79
2023/03/07 01:18:59;;;;;;;;;6.50;6.50;;;;;13.83;54.19;100556.50;146636;571;45914;-78
2023/03/07 01:22:03;;;;;;;;;4.25;3.75;;;;;13.71;54.44;100545.69;146640;572;45020;-77
2023/03/07 01:24:58;;;;;;;;;3.50;3.00;;;;;13.62;55.02;100543.62;146635;584;45914;-84
2023/03/07 01:27:50;;;;;;;;;3.50;3.50;;;;;13.54;55.42;100538.13;146637;574;45020;-86
2023/03/07 01:30:47;;;;;;;;;3.25;3.25;;;;;13.47;55.02;100537.84;146636;712;45017;-74
2023/03/07 01:33:53;;;;;;;;;2.75;2.75;;;;;13.40;55.30;100540.22;146626;647;45020;-75
2023/03/07 01:36:48;;;;;;;;;3.00;3.00;;;;;13.38;55.35;100544.47;146624;566;45914;-78
2023/03/07 01:39:46;;;;;;;;;3.50;3.50;;;;;13.37;54.94;100541.84;146628;615;45020;-78
2023/03/07 01:42:52;;;;;;;;;3.00;3.00;;;;;13.35;55.73;100533.06;146623;628;45914;-78
2023/03/07 01:46:33;;;;;;;;;2.50;2.50;;;;;13.33;55.77;100538.25;146628;564;45020;-78
2023/03/07 01:49:49;;;;;;;;;3.25;3.25;;;;;13.34;55.74;100529.59;146625;577;45912;-77
2023/03/07 01:53:00;;;;;;;;;4.00;3.25;;;;;13.36;55.85;100534.84;146628;569;45012;-77
2023/03/07 01:56:01;;;;;;;;;4.25;4.25;;;;;13.35;55.95;100533.06;146620;605;46914;-78
2023/03/07 01:59:04;;;;;;;;;4.25;4.25;;;;;13.26;56.35;100525.81;146626;623;45020;-78
2023/03/07 02:02:07;;;;;;;;;3.75;3.75;;;;;13.36;56.69;100540.97;146625;624;45016;-77
2023/03/07 02:05:36;;;;;;;;;7.25;5.25;;;;;11.45;56.62;100216.34;146632;642;45020;-77
2023/03/07 02:08:43;;;;;;;;;3.50;3.50;;;;;13.38;56.05;100549.69;146625;573;45019;-77
2023/03/07 02:11:51;;;;;;;;;;;;;;;;;;;;;
2023/03/07 02:15:03;;;;;;;;;4.25;4.00;;;;;13.31;56.95;100545.09;146625;605;45913;-77
2023/03/07 02:18:17;;;;;;;;;3.75;3.75;;;;;13.28;57.84;100554.53;146624;597;45914;-78
2023/03/07 02:21:56;;;;;;;;;6.25;5.75;;;;;13.27;58.18;100550.13;146627;642;45016;-75
2023/03/07 02:25:11;;;;;;;;;6.00;5.00;;;;;11.32;58.01;100220.16;146626;611;45020;-74
2023/03/07 02:28:22;;;;;;;;;7.00;5.25;;;;;13.17;58.49;100557.53;146625;582;45914;-76
2023/03/07 02:31:28;;;;;;;;;5.50;5.50;;;;;13.16;59.38;100558.38;146625;576;45020;-74
2023/03/07 02:34:34;;;;;;;;;3.50;3.50;;;;;13.13;60.00;100558.28;146634;589;45914;-76
2023/03/07 02:37:53;;;;;;;;;6.50;5.00;;;;;13.12;60.27;100566.03;146640;668;45012;-73
2023/03/07 02:40:51;;;;;;;;;4.00;4.00;;;;;13.14;61.12;100567.84;146636;602;45016;-87
2023/03/07 02:44:01;;;;;;;;;;;;;;;;;;;;;
2023/03/07 02:47:01;;;;;;;;;30.75;23.25;;;;;12.99;62.14;100563.75;146623;608;45016;-83
2023/03/07 02:50:11;;;;;;;;;21.25;13.50;;;;;12.88;62.87;100553.84;146630;581;45020;-83
2023/03/07 02:53:31;;;;;;;;;8.00;7.25;;;;;10.87;62.74;100214.84;146635;616;45014;-75
2023/03/07 02:56:27;;;;;;;;;4.00;3.75;;;;;12.81;63.48;100557.03;146640;566;45012;-78
2023/03/07 02:59:25;;;;;;;;;4.75;3.50;;;;;12.78;63.12;100561.22;146635;578;45915;-77
2023/03/07 03:02:32;;;;;;;;;4.00;3.75;;;;;12.77;62.22;100559.44;146635;609;45020;-78
2023/03/07 03:05:38;;;;;;;;;3.00;2.25;;;;;12.77;62.38;100559.44;146634;656;45017;-78
2023/03/07 03:08:43;;;;;;;;;4.75;2.75;;;;;12.76;62.20;100561.16;146639;569;45020;-79
2023/03/07 03:11:47;;;;;;;;;2.75;2.25;;;;;12.76;61.95;100555.94;146631;575;46016;-78
2023/03/07 03:15:00;;;;;;;;;2.75;1.75;;;;;10.98;61.75;100257.69;146640;630;45012;-79
2023/03/07 03:18:04;;;;;;;;;2.25;2.25;;;;;12.81;62.99;100559.63;146634;656;46016;-77
2023/03/07 03:21:02;;;;;;;;;2.00;2.00;;;;;11.98;63.06;100413.31;146707;563;45014;-77
2023/03/07 03:24:17;;;;;;;;;3.00;2.50;;;;;12.77;61.73;100542.09;146625;566;45019;-79
2023/03/07 03:27:30;;;;;;;;;4.00;2.75;;;;;12.80;60.71;100541.34;146626;632;45020;-74
2023/03/07 03:30:39;;;;;;;;;3.25;3.25;;;;;12.84;60.97;100544.12;146622;671;45916;-75
2023/03/07 03:33:50;;;;;;;;;4.50;3.00;;;;;12.88;59.75;100538.22;146628;611;45046;-74
2023/03/07 03:36:56;;;;;;;;;0.00;0.00;;;;;12.88;58.70;100527.81;146621;570;46916;-84
2023/03/07 03:40:12;;;;;;;;;0.00;0.00;;;;;12.90;58.30;100527.88;146626;675;45020;-83
2023/03/07 03:43:19;;;;;;;;;;;;;;;;;;;;;
2023/03/07 03:46:23;;;;;;;;;2.50;2.25;;;;;12.97;57.25;100532.50;146628;647;45021;-81
2023/03/07 03:49:33;;;;;;;;;2.75;2.00;;;;;13.02;57.48;100535.25;146622;585;45016;-81
2023/03/07 03:52:47;;;;;;;;;2.50;2.50;;;;;13.07;57.88;100541.53;146626;584;46012;-80
2023/03/07 03:55:43;;;;;;;;;1.00;1.00;;;;;13.10;57.72;100542.53;146624;576;45016;-80
2023/03/07 03:58:47;;;;;;;;;1.25;1.25;;;;;13.17;58.50;100523.69;146625;595;45021;-80
2023/03/07 04:01:54;;;;;;;;;5.00;3.00;;;;;13.20;57.70;100516.84;146623;582;45914;-80
2023/03/07 04:05:02;;;;;;;;;;;;;;;;;;;;;
2023/03/07 04:08:01;;;;;;;;;4.00;4.00;;;;;13.26;58.26;100530.12;146620;631;45914;-78
2023/03/07 04:10:59;;;;;;;;;5.00;5.00;;;;;13.28;57.98;100529.38;146627;602;45020;-79
2023/03/07 04:14:03;;;;;;;;;4.50;3.25;;;;;13.30;57.74;100522.50;146622;576;45914;-79
2023/03/07 04:17:03;;;;;;;;;2.75;2.25;;;;;13.32;57.65;100526.03;146625;611;45020;-80
2023/03/07 04:20:14;;;;;;;;;3.00;2.75;;;;;13.34;58.17;100531.31;146626;585;45040;-80
2023/03/07 04:23:20;;;;;;;;;3.25;3.25;;;;;13.34;58.75;100540.00;146632;722;45021;-80
2023/03/07 04:26:28;;;;;;;;;7.50;5.00;;;;;13.35;58.75;100543.50;146626;658;45016;-81
2023/03/07 04:29:26;;;;;;;;;6.50;4.50;;;;;13.32;58.71;100536.44;146632;606;45021;-87
2023/03/07 04:32:41;;;;;;;;;3.00;3.00;;;;;13.31;58.88;100529.47;146629;615;45913;-79
2023/03/07 04:35:35;;;;;;;;;3.75;3.00;;;;;13.27;59.83;100544.91;146633;662;45020;-83
2023/03/07 04:38:32;;;;;;;;;3.75;3.75;;;;;13.27;59.46;100545.81;146626;593;46012;-80
2023/03/07 04:41:53;;;;;;;;;3.25;3.25;;;;;13.26;59.36;100536.22;146633;604;45020;-74
2023/03/07 04:45:01;;;;;;;;;7.00;5.00;;;;;13.26;60.12;100545.75;146629;569;45019;-75
2023/03/07 04:48:00;;;;;;;;;6.00;4.25;;;;;13.26;60.66;100548.34;146633;691;46010;-76
2023/03/07 04:51:04;;;;;;;;;8.50;6.00;;;;;13.26;61.91;100556.16;146625;573;46013;-76
2023/03/07 04:54:12;;;;;;;;;5.25;5.25;;;;;13.22;62.27;100544.72;146632;719;46010;-77
2023/03/07 04:57:07;;;;;;;;;6.00;4.50;;;;;13.20;61.67;100548.09;146627;618;45913;-77
2023/03/07 05:00:13;;;;;;;;;2.75;2.75;;;;;13.10;60.62;100554.66;146631;628;45021;-77
2023/03/07 05:03:24;;;;;;;;;;;;;;;;;;;;;
2023/03/07 05:06:38;;;;;;;;;4.00;4.00;;;;;12.78;61.05;100517.88;146632;583;45021;-75
2023/03/07 05:09:46;;;;;;;;;4.00;3.50;;;;;12.87;62.41;100543.38;146627;625;45912;-75
2023/03/07 05:12:52;;;;;;;;;2.75;1.00;;;;;12.86;61.49;100552.00;146634;578;45020;-74
2023/03/07 05:15:48;;;;;;;;;3.25;2.75;;;;;12.83;61.66;100550.16;146627;579;46012;-74
2023/03/07 05:18:49;;;;;;;;;3.25;2.75;;;;;12.84;60.29;100558.87;146632;602;45020;-73
2023/03/07 05:21:59;;;;;;;;;4.00;4.00;;;;;11.85;61.42;100381.59;146625;605;45914;-72
2023/03/07 05:24:51;;;;;;;;;4.50;4.00;;;;;12.87;61.82;100556.41;146627;563;45020;-76
2023/03/07 05:27:44;;;;;;;;;2.25;2.00;;;;;12.89;62.08;100553.00;146621;622;46016;-77
2023/03/07 05:30:37;;;;;;;;;2.00;2.00;;;;;12.93;62.48;100561.84;146627;582;45020;-76
2023/03/07 05:33:31;;;;;;;;;9.50;8.75;;;;;12.97;62.38;100561.12;146623;723;45913;-75
2023/03/07 05:36:23;;;;;;;;;4.50;3.50;;;;;12.97;61.92;100561.12;146625;611;45021;-76
2023/03/07 05:39:17;;;;;;;;;3.50;3.00;;;;;13.00;62.01;100560.34;146623;646;45913;-75
2023/03/07 05:42:23;;;;;;;;;4.00;4.00;;;;;13.04;62.65;100559.63;146625;641;45021;-75
2023/03/07 05:45:25;;;;;;;;;4.25;4.25;;;;;13.02;61.93;100567.41;146623;600;45913;-76
2023/03/07 05:48:42;;;;;;;;;;;;;;;;;;;;;
2023/03/07 05:51:40;;;;;;;;;7.00;6.50;;;;;12.96;62.16;100580.19;146623;722;45019;-81
2023/03/07 05:54:51;;;;;;;;;12.25;9.50;;;;;12.98;61.23;100575.91;146624;618;45020;-80
2023/03/07 05:57:55;;;;;;;;;8.25;7.00;;;;;13.01;61.05;100569.94;146618;577;45017;-88
2023/03/07 06:00:58;;;;;;;;;6.50;5.50;;;;;13.03;61.54;100576.97;146624;564;45020;-77
2023/03/07 06:03:59;;;;;;;;;10.00;9.00;;;;;13.07;62.21;100581.47;146622;572;45900;-75
2023/03/07 06:07:14;;;;;;;;;6.00;6.00;;;;;13.17;62.80;100586.19;146629;587;45021;-76
2023/03/07 06:10:35;;;;;;;;;10.25;5.75;;;;;13.28;62.61;100581.44;146621;641;45016;-80
2023/03/07 06:13:37;;;;;;;;;8.25;5.25;;;;;13.35;62.77;100580.84;146628;598;45021;-77
2023/03/07 06:16:46;;;;;;;;;8.75;7.25;;;;;13.42;62.75;100583.66;146623;628;45036;-76
2023/03/07 06:19:40;;;;;;;;;8.75;7.25;;;;;13.49;62.88;100590.88;146626;668;45028;-77
2023/03/07 06:22:44;;;;;;;;;5.75;5.75;;;;;13.55;61.83;100593.69;146622;586;46913;-79
2023/03/07 06:25:47;;;;;;;;;5.50;4.50;;;;;13.62;60.29;100588.78;146628;574;45020;-79
2023/03/07 06:28:47;;;;;;;;;5.75;5.75;;;;;13.69;60.50;100592.50;146623;577;45017;-82
2023/03/07 06:31:51;;;;;;;;;7.75;7.25;;;;;13.76;60.78;100584.06;146627;571;45020;-82
2023/03/07 06:34:52;;;;;;;;;14.75;14.75;;;;;13.78;60.21;100574.59;146623;618;45017;-81
2023/03/07 06:37:58;;;;;;;;;23.25;21.25;;;;;13.84;60.20;100574.81;146616;571;46012;-82
2023/03/07 06:41:20;;;;;;;;;50.25;39.50;;;;;13.95;60.67;100569.97;146618;571;45016;-83
2023/03/07 06:44:24;;;;;;;;;46.75;35.75;;;;;14.08;60.89;100580.00;146619;727;45021;-82
2023/03/07 06:47:23;;;;;;;;;65.50;51.75;;;;;14.19;59.53;100569.94;146615;577;46012;-76
2023/03/07 06:50:31;;;;;;;;;59.75;47.50;;;;;14.36;60.39;100574.81;146618;694;45021;-70
2023/03/07 06:53:44;;;;;;;;;22.00;20.75;;;;;13.68;59.62;100416.16;146613;587;46014;-72
2023/03/07 06:56:43;;;;;;;;;7.25;5.00;;;;;14.78;58.23;100567.56;146618;595;45021;-76
2023/03/07 06:59:59;;;;;;;;;3.50;3.25;;;;;14.94;57.10;100574.12;146623;576;45915;-74
2023/03/07 07:02:59;;;;;;;;;4.00;4.00;;;;;15.02;56.20;100580.50;146627;624;45020;-71
2023/03/07 07:06:06;;;;;;;;;7.25;4.00;;;;;15.08;56.43;100574.56;146621;628;45916;-70
2023/03/07 07:09:25;;;;;;;;;7.50;7.25;;;;;15.11;56.41;100580.78;146627;590;45020;-69
2023/03/07 07:12:42;;;;;;;;;7.75;6.00;;;;;15.12;55.26;100587.75;146623;656;45016;-74
2023/03/07 07:15:47;;;;;;;;;4.75;4.25;;;;;15.10;55.88;100583.34;146626;589;45022;-78
2023/03/07 07:19:19;;;;;;;;;;;;;;;;;;;;;
2023/03/07 07:22:31;;;;;;;;;12.50;12.25;;;;;14.79;56.36;100591.09;146632;577;45020;-81
2023/03/07 07:25:48;;;;;;;;;12.00;10.00;;;;;14.60;56.70;100596.53;146619;584;46016;-74
2023/03/07 07:29:01;;;;;;;;;8.00;6.50;;;;;14.44;56.80;100610.78;146627;583;45021;-80
2023/03/07 07:32:00;;;;;;;;;11.00;8.75;;;;;14.29;58.15;100612.88;146629;717;45913;-82
2023/03/07 07:35:11;;;;;;;;;7.00;6.75;;;;;14.19;58.22;100609.06;146633;595;45021;-84
2023/03/07 07:38:12;;;;;;;;;3.50;3.50;;;;;14.12;58.92;100596.66;146628;605;45016;-76
2023/03/07 07:41:22;;;;;;;;;6.75;3.50;;;;;14.16;59.59;100598.50;146633;712;45020;-76
2023/03/07 07:44:17;;;;;;;;;4.75;2.75;;;;;14.18;59.12;100604.69;146629;623;45016;-77
2023/03/07 07:47:32;;;;;;;;;5.00;5.00;;;;;14.19;58.93;100609.06;146632;563;45020;-83
2023/03/07 07:50:44;;;;;;;;;;;;;;;;;;;;;
2023/03/07 07:53:45;;;;;;;;;9.25;9.00;;;;;14.31;60.27;100613.81;146627;606;45022;-81
2023/03/07 07:56:46;;;;;;;;;9.00;8.50;;;;;14.39;60.56;100619.28;146627;629;46875;-81
2023/03/07 08:00:03;;;;;;;;;11.25;8.50;;;;;12.81;59.64;100327.19;146633;569;45020;-75
2023/03/07 08:03:05;;;;;;;;;12.00;12.00;;;;;14.60;60.06;100614.81;146624;583;45914;-70
2023/03/07 08:06:06;;;;;;;;;25.25;21.00;;;;;13.84;60.12;100462.75;146621;589;45020;-79
2023/03/07 08:09:04;;;;;;;;;28.50;27.25;;;;;14.78;60.71;100604.09;146621;634;45913;-80
2023/03/07 08:12:09;;;;;;;;;27.25;24.00;;;;;14.83;59.99;100609.44;146626;655;45021;-75
2023/03/07 08:15:24;;;;;;;;;20.50;18.75;;;;;14.88;59.33;100603.53;146620;605;45913;-79
2023/03/07 08:18:22;;;;;;;;;26.00;24.25;;;;;14.94;59.04;100595.03;146624;585;45021;-78
2023/03/07 08:21:25;;;;;;;;;26.00;21.75;;;;;15.07;58.99;100585.84;146619;592;45911;-76
2023/03/07 08:24:44;;;;;;;;;18.75;17.50;;;;;15.33;57.62;100578.81;146619;564;45020;-78
2023/03/07 08:27:47;;;;;;;;;18.00;16.75;;;;;15.51;56.02;100566.25;146614;571;45914;-80
2023/03/07 08:30:50;;;;;;;;;18.25;16.75;;;;;15.69;56.06;100558.97;146617;642;45020;-79
2023/03/07 08:33:54;;;;;;;;;9.00;8.75;;;;;15.96;55.96;100555.34;146614;674;45914;-78
2023/03/07 08:37:23;;;;;;;;;8.50;8.25;;;;;16.25;54.58;100553.47;146624;658;45020;-78
2023/03/07 08:40:30;;;;;;;;;7.00;6.00;;;;;16.58;53.00;100553.44;146623;586;45912;-80
2023/03/07 08:43:26;;;;;;;;;9.00;6.75;;;;;16.84;51.80;100547.97;146619;702;45021;-78
2023/03/07 08:46:40;;;;;;;;;2.00;2.00;;;;;17.01;52.06;100544.00;146625;600;45016;-78
2023/03/07 08:49:33;;;;;;;;;1.67;1.67;;;;;17.10;51.59;100551.16;146627;574;45021;-78
2023/03/07 08:52:34;;;;;;;;;2.25;1.00;;;;;17.15;50.80;100553.91;146621;579;45016;-78
2023/03/07 08:55:42;;;;;;;;;0.67;0.00;;;;;17.17;51.27;100542.59;146625;586;45021;-78
2023/03/07 08:58:55;;;;;;;;;1.67;1.67;;;;;17.30;50.49;100547.25;146624;577;45913;-78
2023/03/07 09:02:04;;;;;;;;;3.75;3.75;;;;;17.46;50.12;100551.06;146627;623;45020;-72
2023/03/07 09:05:04;;;;;;;;;4.00;4.00;;;;;16.75;50.01;100422.94;146622;581;46914;-75
2023/03/07 09:08:14;;;;;;;;;;;;;;;;;;;;;
2023/03/07 09:11:20;;;;;;;;;11.00;8.00;;;;;17.41;50.95;100557.94;146623;578;45912;-75
2023/03/07 09:14:22;;;;;;;;;4.00;3.00;;;;;17.37;51.31;100552.63;146617;609;45020;-76
2023/03/07 09:17:25;;;;;;;;;7.50;6.00;;;;;17.33;50.16;100550.78;146622;688;46013;-75
2023/03/07 09:20:21;;;;;;;;;10.00;8.75;;;;;17.25;50.23;100543.62;146625;600;45021;-74
2023/03/07 09:23:35;;;;;;;;;6.50;5.50;;;;;17.23;51.65;100547.97;146621;577;45913;-76
2023/03/07 09:26:43;;;;;;;;;11.00;9.50;;;;;16.44;51.85;100408.28;146627;645;45021;-76
2023/03/07 09:29:53;;;;;;;;;12.75;10.00;;;;;17.29;48.59;100557.72;146621;589;45016;-76
2023/03/07 09:32:56;;;;;;;;;10.50;8.50;;;;;17.33;48.95;100551.66;146616;641;46009;-75
2023/03/07 09:35:54;;;;;;;;;12.50;10.75;;;;;17.27;47.92;100546.28;146623;654;45016;-75
2023/03/07 09:38:55;;;;;;;;;11.75;10.50;;;;;17.12;47.61;100549.47;146618;590;45020;-75
2023/03/07 09:42:51;;;;;;;;;12.50;12.00;;;;;16.10;49.30;100393.53;146616;617;45017;-76
2023/03/07 09:46:27;;;;;;;;;8.00;7.50;;;;;17.05;46.77;100537.97;146615;634;46012;-75
2023/03/07 09:50:01;;;;;;;;;10.75;6.00;;;;;17.13;48.26;100532.88;146619;565;45017;-77
2023/03/07 09:53:24;;;;;;;;;9.50;8.25;;;;;16.70;51.31;100379.16;146625;579;45020;-76
2023/03/07 09:57:07;;;;;;;;;7.50;6.00;;;;;17.80;50.76;100506.31;146620;567;45912;-75
2023/03/07 10:00:35;;;;;;;;;6.50;5.50;;;;;18.38;47.99;100523.03;146626;563;45020;-76
2023/03/07 10:03:56;;;;;;;;;9.75;8.00;;;;;18.65;45.51;100518.22;146622;569;45017;-76
2023/03/07 10:07:03;;;;;;;;;6.33;5.67;;;;;18.51;43.29;100522.41;146627;617;45020;-74
2023/03/07 10:10:22;;;;;;;;;9.67;7.00;;;;;18.29;45.57;100517.66;146623;579;45020;-75
2023/03/07 10:14:05;;;;;;;;;5.33;5.33;;;;;18.22;43.56;100503.53;146628;638;45022;-76
2023/03/07 10:17:40;;;;;;;;;8.33;6.33;;;;;18.10;46.71;100500.69;146624;606;45018;-75
2023/03/07 10:21:10;;;;;;;;;9.00;8.25;;;;;18.18;45.84;100512.22;146621;646;45020;-70
2023/03/07 10:24:50;;;;;;;;;;;;;;;;;;;;;
2023/03/07 10:27:52;;;;;;;;;6.50;5.25;;;;;18.67;43.32;100499.88;146620;563;46010;-83
2023/03/07 10:30:52;;;;;;;;;6.50;4.75;;;;;18.79;42.56;100489.56;146621;730;45017;-77
2023/03/07 10:34:03;;;;;;;;;;;;;;;;;;;;;
2023/03/07 10:37:20;;;;;;;;;6.00;4.00;;;;;18.68;45.02;100485.88;146624;582;45018;-81
2023/03/07 10:40:30;;;;;;;;;9.33;4.67;;;;;17.91;41.46;100349.97;146628;564;45021;-79
2023/03/07 10:43:50;;;;;;;;;6.00;4.75;;;;;18.50;39.59;100489.09;146621;672;45918;-85
2023/03/07 10:46:58;;;;;;;;;3.00;3.00;;;;;16.55;39.82;100234.06;146625;654;45022;-78
2023/03/07 10:50:39;;;;;;;;;4.75;4.75;;;;;17.68;43.92;100491.19;146623;596;45913;-78
2023/03/07 10:53:49;;;;;;;;;6.75;6.00;;;;;17.36;41.95;100475.72;146620;612;45020;-76
2023/03/07 10:57:11;;;;;;;;;5.00;5.00;;;;;17.17;41.36;100473.59;146624;687;45017;-80
2023/03/07 11:00:24;;;;;;;;;5.50;3.00;;;;;17.03;45.22;100474.19;146625;573;45022;-77
2023/03/07 11:03:50;;;;;;;;;4.67;4.67;;;;;17.02;46.72;100467.19;146622;639;45912;-76
2023/03/07 11:07:23;;;;;;;;;;;;;;;;;;;;;
2023/03/07 11:11:09;;;;;;;;;6.00;4.75;;;;;15.57;46.96;100194.47;146624;698;45019;-78
2023/03/07 11:14:44;;;;;;;;;4.25;2.00;;;;;15.56;47.49;100204.03;146625;624;45020;-77
2023/03/07 11:18:11;;;;;;;;;3.00;3.00;;;;;16.95;46.14;100456.56;146708;593;45022;-77
2023/03/07 11:21:33;;;;;;;;;6.50;4.50;;;;;16.71;45.18;100438.53;146623;564;45017;-78
2023/03/07 11:24:50;;;;;;;;;4.00;4.00;;;;;16.64;45.28;100440.16;146627;634;45020;-78
2023/03/07 11:28:10;;;;;;;;;3.00;2.00;;;;;16.47;44.48;100444.09;146623;564;45017;-78
2023/03/07 11:31:42;;;;;;;;;6.00;5.00;;;;;16.36;47.08;100442.12;146626;618;45020;-78
2023/03/07 11:35:04;;;;;;;;;3.00;2.00;;;;;16.24;48.93;100435.75;146626;570;45018;-78
2023/03/07 11:38:50;;;;;;;;;3.00;3.00;;;;;16.33;49.14;100438.56;146629;616;45020;-76
2023/03/07 11:42:05;;;;;;;;;7.50;6.00;;;;;16.39;48.97;100446.56;146623;677;45917;-78
2023/03/07 11:45:44;;;;;;;;;4.00;3.75;;;;;16.42;48.96;100437.88;146628;606;45020;-77
2023/03/07 11:49:14;;;;;;;;;3.00;3.00;;;;;16.42;48.92;100432.63;146621;661;45021;-77
2023/03/07 11:53:07;;;;;;;;;;;;;;;;;;;;;
2023/03/07 11:57:03;;;;;;;;;10.00;8.50;;;;;14.73;49.43;100156.78;146621;660;45018;-77
2023/03/07 12:00:48;;;;;;;;;7.50;6.50;;;;;16.17;48.33;100413.78;146627;564;45020;-78
2023/03/07 12:04:45;;;;;;;;;9.25;7.25;;;;;15.46;48.53;100297.00;146622;663;46017;-78
2023/03/07 12:08:28;;;;;;;;;;;;;;;;;;;;;
2023/03/07 12:11:58;;;;;;;;;6.25;5.25;;;;;16.20;49.22;100428.62;146624;640;45915;-76
2023/03/07 12:15:57;;;;;;;;;8.00;8.00;;;;;16.22;48.48;100421.72;146629;603;45021;-75
2023/03/07 12:19:23;;;;;;;;;8.00;7.00;;;;;16.36;49.36;100426.44;146624;679;45016;-77
2023/03/07 12:23:02;;;;;;;;;4.00;4.00;;;;;16.46;49.08;100411.81;146628;660;45022;-73
2023/03/07 12:26:04;;;;;;;;;8.25;7.00;;;;;16.67;47.76;100416.66;146619;660;45018;-71
2023/03/07 12:30:02;;;;;;;;;14.25;11.50;;;;;16.83;48.92;100383.84;146628;593;45020;-69
2023/03/07 12:33:22;;;;;;;;;10.25;10.00;;;;;17.42;46.35;100397.22;146624;608;45022;-73
2023/03/07 12:37:05;;;;;;;;;10.00;9.50;;;;;17.82;45.69;100391.78;146623;649;47012;-75
2023/03/07 12:40:33;;;;;;;;;11.50;10.25;;;;;18.21;46.66;100395.06;146622;618;45018;-73
2023/03/07 12:43:50;;;;;;;;;3.00;2.33;;;;;18.44;45.64;100397.13;146709;585;45022;-78
2023/03/07 12:47:22;;;;;;;;;10.00;10.00;;;;;18.81;47.24;100393.28;146624;616;45019;-75
2023/03/07 12:51:01;;;;;;;;;8.33;6.67;;;;;19.10;43.79;100391.00;146630;583;45013;-75
2023/03/07 12:54:25;;;;;;;;;5.00;5.00;;;;;19.26;45.02;100392.06;146623;616;46917;-72
2023/03/07 12:57:43;;;;;;;;;6.00;4.67;;;;;19.38;43.50;100388.69;146628;577;46012;-75
2023/03/07 13:01:03;;;;;;;;;8.75;7.00;;;;;19.45;42.82;100386.97;146624;686;45017;-75
2023/03/07 13:04:43;;;;;;;;;11.25;8.50;;;;;19.47;44.66;100382.59;146625;565;45020;-76
2023/03/07 13:07:53;;;;;;;;;7.00;7.00;;;;;19.55;43.08;100378.31;146624;646;45019;-74
2023/03/07 13:10:51;;;;;;;;;9.00;6.00;;;;;19.57;43.67;100376.59;146630;575;45020;-75
2023/03/07 13:14:29;;;;;;;;;7.00;5.00;;;;;19.41;42.15;100380.81;146625;583;45917;-71
2023/03/07 13:18:05;;;;;;;;;8.33;4.33;;;;;19.10;45.80;100369.97;146629;588;45022;-71
2023/03/07 13:21:38;;;;;;;;;5.67;3.00;;;;;19.16;43.76;100361.28;146624;642;45016;-72
2023/03/07 13:24:46;;;;;;;;;8.00;7.75;;;;;19.22;46.21;100363.97;146624;659;45020;-72
2023/03/07 13:28:00;;;;;;;;;10.00;8.00;;;;;19.15;44.62;100360.38;146625;622;45016;-72
2023/03/07 13:31:41;;;;;;;;;4.00;3.00;;;;;18.52;42.78;100294.84;146628;565;45021;-70
2023/03/07 13:34:54;;;;;;;;;5.50;5.00;;;;;18.57;44.14;100357.06;146621;619;45910;-71
2023/03/07 13:38:17;;;;;;;;;7.00;5.00;;;;;18.37;44.66;100358.53;146630;619;45021;-72
2023/03/07 13:41:36;;;;;;;;;9.00;8.00;;;;;18.21;46.05;100354.81;146621;601;46916;-71
2023/03/07 13:45:22;;;;;;;;;4.67;3.00;;;;;17.85;46.22;100327.19;146629;625;45023;-71
2023/03/07 13:49:02;;;;;;;;;6.67;5.33;;;;;17.79;47.05;100337.59;146621;563;46910;-71
2023/03/07 13:52:29;;;;;;;;;11.25;10.25;;;;;17.57;48.60;100333.69;146626;576;45021;-71
2023/03/07 13:55:45;;;;;;;;;7.00;4.67;;;;;17.40;52.09;100343.88;146624;618;45018;-70
2023/03/07 13:59:19;;;;;;;;;;;;;;;;;;;;;
2023/03/07 14:02:24;;;;;;;;;7.00;6.00;;;;;16.94;51.96;100347.38;146623;627;45016;-72
2023/03/07 14:05:31;;;;;;;;;3.00;2.00;;;;;16.75;53.11;100344.41;146628;668;45030;-71
2023/03/07 14:08:37;;;;;;;;;4.67;3.67;;;;;16.59;53.38;100339.69;146623;612;45017;-71
2023/03/07 14:12:08;;;;;;;;;10.00;9.50;;;;;16.64;51.65;100340.66;146627;577;45020;-70
2023/03/07 14:15:52;;;;;;;;;6.50;5.00;;;;;16.66;52.10;100330.22;146624;572;45014;-71
2023/03/07 14:19:21;;;;;;;;;6.00;4.75;;;;;16.67;52.68;100327.66;146629;696;45012;-73
2023/03/07 14:22:43;;;;;;;;;3.00;2.67;;;;;16.70;52.04;100338.19;146624;609;45019;-72
2023/03/07 14:26:14;;;;;;;;;2.00;2.00;;;;;16.71;52.49;100320.72;146625;614;45020;-73
2023/03/07 14:29:35;;;;;;;;;5.00;4.00;;;;;16.85;50.17;100349.00;146623;566;45020;-72
2023/03/07 14:32:49;;;;;;;;;2.33;2.33;;;;;16.07;52.49;100213.87;146629;611;45020;-72
2023/03/07 14:36:36;;;;;;;;;5.67;2.00;;;;;16.02;51.67;100210.31;146624;649;45016;-72
2023/03/07 14:40:04;;;;;;;;;5.33;4.33;;;;;16.80;54.22;100355.87;146627;621;46012;-72
2023/03/07 14:43:39;;;;;;;;;2.00;2.00;;;;;15.04;52.34;100056.59;146625;571;45914;-74
2023/03/07 14:47:27;;;;;;;;;3.33;2.67;;;;;16.74;53.06;100354.84;146629;667;45020;-72
2023/03/07 14:50:55;;;;;;;;;3.67;2.00;;;;;16.69;52.25;100359.06;146624;570;45017;-76
2023/03/07 14:54:12;;;;;;;;;2.33;2.33;;;;;16.57;52.53;100359.69;146628;586;46010;-72
2023/03/07 14:57:45;;;;;;;;;2.00;2.00;;;;;16.53;52.34;100360.50;146623;590;45016;-70
2023/03/07 15:00:52;;;;;;;;;9.50;9.00;;;;;16.58;50.75;100364.97;146629;590;45020;-69
2023/03/07 15:03:59;;;;;;;;;3.67;1.67;;;;;16.53;52.26;100364.00;146621;581;46012;-69
2023/03/07 15:07:28;;;;;;;;;5.50;5.00;;;;;15.59;52.36;100198.00;146627;586;45021;-68
2023/03/07 15:10:49;;;;;;;;;2.00;2.00;;;;;14.86;51.45;100062.28;146622;579;46016;-69
2023/03/07 15:14:25;;;;;;;;;3.50;3.50;;;;;16.52;50.65;100345.66;146628;575;45020;-74
2023/03/07 15:18:00;;;;;;;;;4.00;3.00;;;;;16.44;51.85;100355.06;146623;569;45914;-72
2023/03/07 15:21:11;;;;;;;;;11.00;10.50;;;;;15.75;53.00;100244.56;146628;565;45020;-70
2023/03/07 15:24:39;;;;;;;;;14.25;13.00;;;;;16.27;52.87;100337.28;146621;593;45914;-72
2023/03/07 15:27:39;;;;;;;;;6.00;5.33;;;;;16.23;52.20;100330.22;146628;592;45013;-72